Time;durP1;ratioP1;P1;durP2;ratioP2;P2;SDS_P1;SDS_P2;PMS_P1;PMS_P2;Temp;Humidity;BMP_temperature;BMP_pressure;BME280_temperature;BME280_humidity;BME280_pressure;Samples;Min_cycle;Max_cycle;Signal;HPM_P1;HPM_P2
2023/12/19 00:02:01;;;;;;;27.50;19.27;;;;;;;;;;6305712;22;20257;-78
2023/12/19 00:04:28;;;;;;;24.93;18.57;;;;;;;;;;6305031;22;20201;-79
2023/12/19 00:06:57;;;;;;;27.33;19.40;;;;;;;;;;6306072;22;20174;-77
2023/12/19 00:09:24;;;;;;;30.23;18.80;;;;;;;;;;6305466;22;20576;-77
2023/12/19 00:11:51;;;;;;;27.87;19.17;;;;;;;;;;6305852;22;20173;-78
2023/12/19 00:14:18;;;;;;;27.83;18.60;;;;;;;;;;6304978;22;20248;-76
2023/12/19 00:16:45;;;;;;;22.63;17.43;;;;;;;;;;6305948;22;20560;-78
2023/12/19 00:19:12;;;;;;;25.70;18.93;;;;;;;;;;6306177;22;20536;-77
2023/12/19 00:21:40;;;;;;;26.33;19.17;;;;;;;;;;6305985;22;20272;-77
2023/12/19 00:24:09;;;;;;;24.17;18.07;;;;;;;;;;6306156;22;20205;-78
2023/12/19 00:26:36;;;;;;;28.10;18.10;;;;;;;;;;6305496;22;20170;-77
2023/12/19 00:29:03;;;;;;;25.23;18.80;;;;;;;;;;6305041;22;20644;-78
2023/12/19 00:31:30;;;;;;;24.33;18.47;;;;;;;;;;6305784;22;20169;-78
2023/12/19 00:33:58;;;;;;;25.13;17.57;;;;;;;;;;6305278;22;20698;-76
2023/12/19 00:36:25;;;;;;;24.83;18.30;;;;;;;;;;6305498;22;20538;-78
2023/12/19 00:38:52;;;;;;;26.47;18.30;;;;;;;;;;6305512;22;20205;-77
2023/12/19 00:41:20;;;;;;;27.17;18.80;;;;;;;;;;6305126;22;20699;-77
2023/12/19 00:43:48;;;;;;;24.37;18.03;;;;;;;;;;6304546;22;20170;-78
2023/12/19 00:46:15;;;;;;;25.23;17.83;;;;;;;;;;6305478;22;20209;-77
2023/12/19 00:48:42;;;;;;;24.63;18.73;;;;;;;;;;6305037;22;20174;-78
2023/12/19 00:51:10;;;;;;;28.13;18.27;;;;;;;;;;6305715;22;20170;-77
2023/12/19 00:53:37;;;;;;;26.23;18.30;;;;;;;;;;6305316;22;20172;-78
2023/12/19 00:56:08;;;;;;;24.70;18.20;;;;;;;;;;6305487;22;20201;-77
2023/12/19 00:58:37;;;;;;;22.77;16.67;;;;;;;;;;6304547;22;20166;-77
2023/12/19 01:01:05;;;;;;;25.50;17.90;;;;;;;;;;6305104;22;20205;-78
2023/12/19 01:03:32;;;;;;;23.90;16.67;;;;;;;;;;6305077;22;20201;-78
2023/12/19 01:06:00;;;;;;;22.53;17.20;;;;;;;;;;6305342;22;20252;-78
2023/12/19 01:08:27;;;;;;;23.67;17.27;;;;;;;;;;6305048;22;20632;-77
2023/12/19 01:10:55;;;;;;;23.80;17.27;;;;;;;;;;6304988;22;20829;-77
2023/12/19 01:13:22;;;;;;;24.93;17.83;;;;;;;;;;6304353;22;20636;-77
2023/12/19 01:15:50;;;;;;;25.53;17.70;;;;;;;;;;6305168;22;20200;-78
2023/12/19 01:18:17;;;;;;;22.70;17.70;;;;;;;;;;6305103;22;20685;-77
2023/12/19 01:20:47;;;;;;;26.13;18.07;;;;;;;;;;6305107;22;20197;-77
2023/12/19 01:23:14;;;;;;;22.67;16.70;;;;;;;;;;6304892;22;20663;-77
2023/12/19 01:25:41;;;;;;;26.47;17.80;;;;;;;;;;6305234;22;20248;-78
2023/12/19 01:28:09;;;;;;;24.80;17.43;;;;;;;;;;6304923;22;20170;-79
2023/12/19 01:30:36;;;;;;;24.23;17.50;;;;;;;;;;6305334;22;20245;-77
2023/12/19 01:33:04;;;;;;;23.57;17.40;;;;;;;;;;6304809;22;20399;-77
2023/12/19 01:35:31;;;;;;;23.77;16.97;;;;;;;;;;6305042;22;20228;-77
2023/12/19 01:37:58;;;;;;;23.60;16.63;;;;;;;;;;6305381;22;20190;-77
2023/12/19 01:40:28;;;;;;;24.93;17.13;;;;;;;;;;6304643;22;20556;-78
2023/12/19 01:42:55;;;;;;;26.13;18.03;;;;;;;;;;6304918;22;20172;-77
2023/12/19 01:45:24;;;;;;;23.77;16.57;;;;;;;;;;6305690;22;20197;-77
2023/12/19 01:47:51;;;;;;;24.00;15.87;;;;;;;;;;6304397;22;20209;-78
2023/12/19 01:50:19;;;;;;;23.03;16.20;;;;;;;;;;6304672;22;20224;-78
2023/12/19 01:52:50;;;;;;;21.17;16.00;;;;;;;;;;6304656;22;20716;-77
2023/12/19 01:55:17;;;;;;;23.07;16.07;;;;;;;;;;6305290;22;20241;-77
2023/12/19 01:57:45;;;;;;;21.03;15.80;;;;;;;;;;6304809;22;20258;-78
2023/12/19 02:00:13;;;;;;;22.97;16.20;;;;;;;;;;6304640;22;20232;-78
2023/12/19 02:02:41;;;;;;;21.70;15.30;;;;;;;;;;6305036;22;20196;-77
2023/12/19 02:05:08;;;;;;;20.30;15.70;;;;;;;;;;6304595;22;20257;-77
2023/12/19 02:07:37;;;;;;;20.20;15.30;;;;;;;;;;6304695;22;20212;-77
2023/12/19 02:10:04;;;;;;;18.83;15.53;;;;;;;;;;6305293;22;20193;-78
2023/12/19 02:12:31;;;;;;;22.63;15.93;;;;;;;;;;6304320;22;20851;-78
2023/12/19 02:14:59;;;;;;;21.90;15.80;;;;;;;;;;6304847;22;20509;-77
2023/12/19 02:17:26;;;;;;;20.77;15.40;;;;;;;;;;6305254;22;20201;-77
2023/12/19 02:19:53;;;;;;;19.17;14.80;;;;;;;;;;6304555;22;20201;-78
2023/12/19 02:22:20;;;;;;;21.70;15.70;;;;;;;;;;6305431;22;20170;-78
2023/12/19 02:24:49;;;;;;;21.33;15.30;;;;;;;;;;6306076;22;20228;-78
2023/12/19 02:27:19;;;;;;;18.77;14.77;;;;;;;;;;6305883;22;20194;-78
2023/12/19 02:29:46;;;;;;;22.10;14.97;;;;;;;;;;6306728;22;20707;-78
2023/12/19 02:32:13;;;;;;;21.10;15.40;;;;;;;;;;6306921;22;20252;-77
2023/12/19 02:34:40;;;;;;;20.37;15.23;;;;;;;;;;6306507;22;20296;-76
2023/12/19 02:37:07;;;;;;;21.77;14.03;;;;;;;;;;6306835;22;20170;-78
2023/12/19 02:39:35;;;;;;;19.73;14.83;;;;;;;;;;6305825;22;20628;-77
2023/12/19 02:42:03;;;;;;;20.13;15.43;;;;;;;;;;6306450;22;20212;-77
2023/12/19 02:44:31;;;;;;;23.50;14.97;;;;;;;;;;6307037;22;20249;-78
2023/12/19 02:46:58;;;;;;;21.23;14.80;;;;;;;;;;6306115;22;20197;-78
2023/12/19 02:49:25;;;;;;;20.43;15.03;;;;;;;;;;6306173;22;20254;-78
2023/12/19 02:51:52;;;;;;;21.20;15.20;;;;;;;;;;6305896;22;20170;-77
2023/12/19 02:54:19;;;;;;;21.77;15.07;;;;;;;;;;6306247;22;20216;-78
2023/12/19 02:56:47;;;;;;;19.97;14.43;;;;;;;;;;6306175;22;20177;-77
2023/12/19 02:59:15;;;;;;;20.50;14.83;;;;;;;;;;6306138;22;20208;-77
2023/12/19 03:01:47;;;;;;;20.63;14.73;;;;;;;;;;6305721;22;20239;-77
2023/12/19 03:04:14;;;;;;;19.27;14.10;;;;;;;;;;6306976;22;20166;-77
2023/12/19 03:06:41;;;;;;;19.73;14.30;;;;;;;;;;6306127;22;20201;-78
2023/12/19 03:09:09;;;;;;;18.60;13.70;;;;;;;;;;6305966;22;20194;-78
2023/12/19 03:11:38;;;;;;;19.60;14.50;;;;;;;;;;6306713;22;20251;-78
2023/12/19 03:14:05;;;;;;;18.93;13.53;;;;;;;;;;6305614;22;20550;-77
2023/12/19 03:16:34;;;;;;;20.27;14.13;;;;;;;;;;6306289;22;20248;-78
2023/12/19 03:19:01;;;;;;;15.53;13.13;;;;;;;;;;6306529;22;20204;-77
2023/12/19 03:21:28;;;;;;;20.23;13.93;;;;;;;;;;6306373;22;20194;-77
2023/12/19 03:23:55;;;;;;;18.83;13.97;;;;;;;;;;6305502;22;20193;-78
2023/12/19 03:26:22;;;;;;;19.63;14.03;;;;;;;;;;6306172;22;20704;-77
2023/12/19 03:28:50;;;;;;;20.07;13.53;;;;;;;;;;6306669;22;20486;-78
2023/12/19 03:31:17;;;;;;;18.37;13.53;;;;;;;;;;6305838;22;20252;-78
2023/12/19 03:33:45;;;;;;;17.90;13.40;;;;;;;;;;6305946;22;20173;-77
2023/12/19 03:36:13;;;;;;;16.13;13.37;;;;;;;;;;6305891;22;20229;-78
2023/12/19 03:38:40;;;;;;;17.70;13.13;;;;;;;;;;6305710;22;20264;-78
2023/12/19 03:41:07;;;;;;;19.83;12.57;;;;;;;;;;6305468;22;20180;-77
2023/12/19 03:43:35;;;;;;;17.40;12.80;;;;;;;;;;6306078;22;20505;-77
2023/12/19 03:46:03;;;;;;;20.13;12.97;;;;;;;;;;6306147;22;20652;-78
2023/12/19 03:48:30;;;;;;;18.77;12.20;;;;;;;;;;6306116;22;20173;-78
2023/12/19 03:50:59;;;;;;;19.93;12.83;;;;;;;;;;6306237;22;20208;-77
2023/12/19 03:53:26;;;;;;;17.30;12.37;;;;;;;;;;6305456;22;20170;-77
2023/12/19 03:55:53;;;;;;;18.10;12.30;;;;;;;;;;6305192;22;20617;-77
2023/12/19 03:58:20;;;;;;;17.47;12.67;;;;;;;;;;6305700;22;20202;-78
2023/12/19 04:00:48;;;;;;;17.30;12.30;;;;;;;;;;6305490;22;20727;-78
2023/12/19 04:03:15;;;;;;;16.00;12.13;;;;;;;;;;6305917;22;20176;-78
2023/12/19 04:05:42;;;;;;;18.13;12.60;;;;;;;;;;6305954;22;20262;-78
2023/12/19 04:08:11;;;;;;;15.57;12.13;;;;;;;;;;6305331;22;20659;-78
2023/12/19 04:10:38;;;;;;;20.70;12.47;;;;;;;;;;6305243;22;20564;-78
2023/12/19 04:13:05;;;;;;;18.87;12.53;;;;;;;;;;6305609;22;20699;-77
2023/12/19 04:15:33;;;;;;;14.87;11.67;;;;;;;;;;6305415;22;20280;-78
2023/12/19 04:18:00;;;;;;;17.20;11.80;;;;;;;;;;6305949;22;20165;-77
2023/12/19 04:20:27;;;;;;;16.87;12.13;;;;;;;;;;6305032;22;20205;-77
2023/12/19 04:22:54;;;;;;;17.87;12.10;;;;;;;;;;6305570;22;20197;-77
2023/12/19 04:25:23;;;;;;;16.83;12.30;;;;;;;;;;6305744;22;20244;-78
2023/12/19 04:27:50;;;;;;;17.40;12.33;;;;;;;;;;6304875;22;20853;-79
2023/12/19 04:30:17;;;;;;;17.97;12.37;;;;;;;;;;6305110;22;20249;-78
2023/12/19 04:32:44;;;;;;;17.93;12.20;;;;;;;;;;6305595;22;20205;-78
2023/12/19 04:35:12;;;;;;;17.97;11.70;;;;;;;;;;6305133;22;20229;-78
2023/12/19 04:37:39;;;;;;;17.83;11.63;;;;;;;;;;6305775;22;20169;-77
2023/12/19 04:40:07;;;;;;;18.83;12.17;;;;;;;;;;6305742;22;20253;-78
2023/12/19 04:42:35;;;;;;;16.57;11.87;;;;;;;;;;6304854;22;20205;-77
2023/12/19 04:45:02;;;;;;;17.83;12.43;;;;;;;;;;6305599;22;20170;-77
2023/12/19 04:47:30;;;;;;;16.40;12.07;;;;;;;;;;6304887;22;20170;-78
2023/12/19 04:49:57;;;;;;;19.47;12.37;;;;;;;;;;6305316;22;20190;-78
2023/12/19 04:52:24;;;;;;;18.10;12.40;;;;;;;;;;6305539;22;20173;-78
2023/12/19 04:54:51;;;;;;;16.33;11.20;;;;;;;;;;6305167;22;20201;-78
2023/12/19 04:57:18;;;;;;;18.43;11.97;;;;;;;;;;6305654;22;20291;-77
2023/12/19 04:59:47;;;;;;;18.53;12.20;;;;;;;;;;6305056;22;20237;-78
2023/12/19 05:02:14;;;;;;;16.17;12.07;;;;;;;;;;6305260;22;20224;-77
2023/12/19 05:04:41;;;;;;;16.57;11.83;;;;;;;;;;6304698;22;20253;-77
2023/12/19 05:07:09;;;;;;;18.57;11.83;;;;;;;;;;6305852;22;20178;-78
2023/12/19 05:09:36;;;;;;;18.60;12.47;;;;;;;;;;6305120;22;20169;-78
2023/12/19 05:12:03;;;;;;;17.40;11.70;;;;;;;;;;6304893;22;20200;-78
2023/12/19 05:14:30;;;;;;;15.60;11.57;;;;;;;;;;6305767;22;20241;-78
2023/12/19 05:16:59;;;;;;;18.93;11.83;;;;;;;;;;6304931;22;20204;-77
2023/12/19 05:19:27;;;;;;;18.40;11.97;;;;;;;;;;6305263;22;20170;-77
2023/12/19 05:21:54;;;;;;;15.27;11.40;;;;;;;;;;6305187;22;20255;-78
2023/12/19 05:24:21;;;;;;;18.33;12.00;;;;;;;;;;6305283;22;20194;-78
2023/12/19 05:26:48;;;;;;;16.93;11.37;;;;;;;;;;6305061;22;20189;-77
2023/12/19 05:29:15;;;;;;;16.10;11.27;;;;;;;;;;6305600;22;20201;-78
2023/12/19 05:31:42;;;;;;;16.37;11.60;;;;;;;;;;6304881;22;20632;-78
2023/12/19 05:34:11;;;;;;;16.57;12.00;;;;;;;;;;6304693;22;20249;-77
2023/12/19 05:36:45;;;;;;;17.23;11.60;;;;;;;;;;6305212;22;20225;-78
2023/12/19 05:39:13;;;;;;;16.90;12.00;;;;;;;;;;6305480;22;20200;-78
2023/12/19 05:41:40;;;;;;;16.33;12.00;;;;;;;;;;6305059;22;20213;-78
2023/12/19 05:44:07;;;;;;;19.97;11.60;;;;;;;;;;6304648;22;20272;-77
2023/12/19 05:46:34;;;;;;;15.90;11.60;;;;;;;;;;6305313;22;20176;-77
2023/12/19 05:49:02;;;;;;;17.87;11.73;;;;;;;;;;6305084;22;20190;-78
2023/12/19 05:51:31;;;;;;;16.03;11.73;;;;;;;;;;6305303;22;20166;-76
2023/12/19 05:53:59;;;;;;;16.23;11.53;;;;;;;;;;6304556;22;20544;-78
2023/12/19 05:56:26;;;;;;;19.27;11.80;;;;;;;;;;6304698;22;20212;-78
2023/12/19 05:58:54;;;;;;;20.10;11.57;;;;;;;;;;6306219;22;20170;-78
2023/12/19 06:01:21;;;;;;;17.53;11.70;;;;;;;;;;6306306;22;20197;-78
2023/12/19 06:03:48;;;;;;;18.60;11.53;;;;;;;;;;6306866;22;20203;-77
2023/12/19 06:06:16;;;;;;;16.63;10.67;;;;;;;;;;6307152;22;20225;-77
2023/12/19 06:08:45;;;;;;;18.07;11.93;;;;;;;;;;6306756;22;20197;-78
2023/12/19 06:11:12;;;;;;;18.03;11.90;;;;;;;;;;6306974;22;20695;-78
2023/12/19 06:13:39;;;;;;;15.83;10.50;;;;;;;;;;6307100;22;20196;-78
2023/12/19 06:16:08;;;;;;;16.13;11.27;;;;;;;;;;6306066;22;20675;-78
2023/12/19 06:18:35;;;;;;;15.77;11.30;;;;;;;;;;6306025;22;20177;-78
2023/12/19 06:21:05;;;;;;;17.63;11.80;;;;;;;;;;6306341;22;20205;-78
2023/12/19 06:23:32;;;;;;;15.90;11.77;;;;;;;;;;6306476;22;20166;-78
2023/12/19 06:26:01;;;;;;;16.80;11.60;;;;;;;;;;6306612;22;20208;-80
2023/12/19 06:28:28;;;;;;;14.17;11.30;;;;;;;;;;6307125;22;20249;-78
2023/12/19 06:30:55;;;;;;;18.43;10.97;;;;;;;;;;6306171;22;20197;-79
2023/12/19 06:33:22;;;;;;;15.60;11.53;;;;;;;;;;6306638;22;20256;-79
2023/12/19 06:35:51;;;;;;;16.13;10.83;;;;;;;;;;6306512;22;20205;-79
2023/12/19 06:38:19;;;;;;;17.47;11.57;;;;;;;;;;6306555;22;20166;-79
2023/12/19 06:40:46;;;;;;;17.57;11.60;;;;;;;;;;6306425;22;20201;-77
2023/12/19 06:43:14;;;;;;;15.93;11.40;;;;;;;;;;6306093;22;20197;-78
2023/12/19 06:45:41;;;;;;;15.10;11.30;;;;;;;;;;6306205;22;20222;-80
2023/12/19 06:48:09;;;;;;;17.17;11.23;;;;;;;;;;6306802;22;20194;-80
2023/12/19 06:50:36;;;;;;;15.73;11.00;;;;;;;;;;6305932;22;20249;-80
2023/12/19 06:53:03;;;;;;;15.80;11.10;;;;;;;;;;6306771;22;20193;-81
2023/12/19 06:55:31;;;;;;;16.73;10.53;;;;;;;;;;6306692;22;20197;-80
2023/12/19 06:57:58;;;;;;;15.63;12.00;;;;;;;;;;6306846;22;20276;-82
2023/12/19 07:00:28;;;;;;;17.17;11.40;;;;;;;;;;6306024;22;20516;-81
2023/12/19 07:02:55;;;;;;;13.93;10.23;;;;;;;;;;6306158;22;20225;-81
2023/12/19 07:05:22;;;;;;;17.47;11.00;;;;;;;;;;6306499;22;20501;-80
2023/12/19 07:07:51;;;;;;;16.03;11.30;;;;;;;;;;6306400;22;20253;-80
2023/12/19 07:10:18;;;;;;;17.37;11.37;;;;;;;;;;6306634;22;20202;-80
2023/12/19 07:12:46;;;;;;;15.53;11.23;;;;;;;;;;6306474;22;20173;-80
2023/12/19 07:15:14;;;;;;;16.20;11.10;;;;;;;;;;6305269;22;20212;-80
2023/12/19 07:17:46;;;;;;;18.17;11.80;;;;;;;;;;6306735;22;20197;-81
2023/12/19 07:20:13;;;;;;;15.83;10.73;;;;;;;;;;6306656;22;20170;-81
2023/12/19 07:22:41;;;;;;;16.73;11.03;;;;;;;;;;6306579;22;20166;-81
2023/12/19 07:25:09;;;;;;;16.20;10.43;;;;;;;;;;6306251;22;20482;-81
2023/12/19 07:27:37;;;;;;;13.17;10.60;;;;;;;;;;6306473;22;20174;-81
2023/12/19 07:30:05;;;;;;;15.50;11.50;;;;;;;;;;6306564;22;20264;-81
2023/12/19 07:32:32;;;;;;;15.07;11.40;;;;;;;;;;6305924;22;20180;-81
2023/12/19 07:35:01;;;;;;;13.80;10.67;;;;;;;;;;6306081;22;20719;-80
2023/12/19 07:37:28;;;;;;;15.10;10.97;;;;;;;;;;6306353;22;20228;-80
2023/12/19 07:39:55;;;;;;;18.53;11.37;;;;;;;;;;6305816;22;20197;-80
2023/12/19 07:42:22;;;;;;;18.27;11.27;;;;;;;;;;6306325;22;20198;-80
2023/12/19 07:44:50;;;;;;;15.37;10.20;;;;;;;;;;6306385;22;20276;-80
2023/12/19 07:47:17;;;;;;;14.37;10.33;;;;;;;;;;6306142;22;20173;-81
2023/12/19 07:49:45;;;;;;;16.57;10.73;;;;;;;;;;6305688;22;20629;-82
2023/12/19 07:52:13;;;;;;;15.37;10.50;;;;;;;;;;6306528;22;20189;-81
2023/12/19 07:54:41;;;;;;;14.60;10.40;;;;;;;;;;6305798;22;20177;-80
2023/12/19 07:57:08;;;;;;;12.17;9.10;;;;;;;;;;6306451;22;20201;-81
2023/12/19 07:59:36;;;;;;;15.57;10.20;;;;;;;;;;6305408;22;20169;-80
2023/12/19 08:02:03;;;;;;;15.70;10.77;;;;;;;;;;6306489;22;20264;-81
2023/12/19 08:04:30;;;;;;;15.10;9.93;;;;;;;;;;6305370;22;20186;-81
2023/12/19 08:06:57;;;;;;;15.73;9.73;;;;;;;;;;6305922;22;20223;-80
2023/12/19 08:09:28;;;;;;;17.13;9.90;;;;;;;;;;6305644;22;20186;-80
2023/12/19 08:11:56;;;;;;;16.43;10.33;;;;;;;;;;6305731;22;20568;-80
2023/12/19 08:14:23;;;;;;;12.63;9.53;;;;;;;;;;6304140;22;20216;-81
2023/12/19 08:16:51;;;;;;;15.40;9.90;;;;;;;;;;6306322;22;20276;-80
2023/12/19 08:19:18;;;;;;;16.47;9.97;;;;;;;;;;6305951;22;20215;-81
2023/12/19 08:21:49;;;;;;;13.23;9.30;;;;;;;;;;6305736;22;20177;-81
2023/12/19 08:24:16;;;;;;;13.77;9.70;;;;;;;;;;6306079;22;20166;-80
2023/12/19 08:26:49;;;;;;;14.43;9.70;;;;;;;;;;6305865;22;20169;-80
2023/12/19 08:29:16;;;;;;;14.33;9.20;;;;;;;;;;6305684;22;20173;-81
2023/12/19 08:31:44;;;;;;;14.87;10.03;;;;;;;;;;6305696;22;20192;-80
2023/12/19 08:34:11;;;;;;;15.83;10.00;;;;;;;;;;6306056;22;20250;-80
2023/12/19 08:36:38;;;;;;;15.80;10.40;;;;;;;;;;6305360;22;20276;-81
2023/12/19 08:39:10;;;;;;;12.23;9.53;;;;;;;;;;6306341;22;20169;-81
2023/12/19 08:41:37;;;;;;;15.93;10.53;;;;;;;;;;6305491;22;20215;-79
2023/12/19 08:44:06;;;;;;;13.83;9.97;;;;;;;;;;6305987;22;20177;-81
2023/12/19 08:46:34;;;;;;;18.30;10.10;;;;;;;;;;6305116;22;20223;-81
2023/12/19 08:49:02;;;;;;;14.17;9.47;;;;;;;;;;6305807;22;20177;-81
2023/12/19 08:51:29;;;;;;;14.20;9.90;;;;;;;;;;6305479;22;20166;-80
2023/12/19 08:53:56;;;;;;;14.97;10.57;;;;;;;;;;6305863;22;20205;-80
2023/12/19 08:56:23;;;;;;;15.13;10.07;;;;;;;;;;6305268;22;20189;-79
2023/12/19 08:58:51;;;;;;;15.10;9.73;;;;;;;;;;6305419;22;20265;-81
2023/12/19 09:01:19;;;;;;;13.73;10.27;;;;;;;;;;6305486;22;20194;-81
2023/12/19 09:03:46;;;;;;;14.57;9.83;;;;;;;;;;6305263;22;20625;-81
2023/12/19 09:06:14;;;;;;;15.07;10.57;;;;;;;;;;6305273;22;20653;-80
2023/12/19 09:08:41;;;;;;;14.70;9.63;;;;;;;;;;6306124;22;20528;-80
2023/12/19 09:11:08;;;;;;;12.87;9.87;;;;;;;;;;6304667;22;20253;-81
2023/12/19 09:13:38;;;;;;;14.90;9.93;;;;;;;;;;6305110;22;20682;-81
2023/12/19 09:16:06;;;;;;;14.27;9.10;;;;;;;;;;6305101;22;20723;-80
2023/12/19 09:18:35;;;;;;;13.67;8.90;;;;;;;;;;6305292;22;20292;-81
2023/12/19 09:21:03;;;;;;;14.30;8.53;;;;;;;;;;6305154;22;20549;-80
2023/12/19 09:23:30;;;;;;;10.53;8.10;;;;;;;;;;6305633;22;20209;-79
2023/12/19 09:25:57;;;;;;;14.33;8.50;;;;;;;;;;6304638;22;20558;-80
2023/12/19 09:28:29;;;;;;;14.03;8.73;;;;;;;;;;6305435;22;20680;-80
2023/12/19 09:30:56;;;;;;;16.40;13.83;;;;;;;;;;6305290;22;20252;-81
2023/12/19 09:33:23;;;;;;;22.67;15.63;;;;;;;;;;6305901;22;20257;-80
2023/12/19 09:35:52;;;;;;;19.43;14.43;;;;;;;;;;6308045;22;20244;-80
2023/12/19 09:38:19;;;;;;;16.57;11.80;;;;;;;;;;6307839;22;20206;-80
2023/12/19 09:40:47;;;;;;;14.17;10.80;;;;;;;;;;6307266;22;20177;-80
2023/12/19 09:43:14;;;;;;;14.90;9.87;;;;;;;;;;6307043;22;20709;-80
2023/12/19 09:45:43;;;;;;;10.77;8.30;;;;;;;;;;6307392;22;20674;-80
2023/12/19 09:48:11;;;;;;;11.77;9.03;;;;;;;;;;6307148;22;20169;-80
2023/12/19 09:50:43;;;;;;;12.43;8.37;;;;;;;;;;6307027;22;20201;-81
2023/12/19 09:53:12;;;;;;;12.90;8.90;;;;;;;;;;6307139;22;20650;-79
2023/12/19 09:55:43;;;;;;;14.27;9.37;;;;;;;;;;6306759;22;20172;-81
2023/12/19 09:58:11;;;;;;;12.17;8.60;;;;;;;;;;6307454;22;20201;-80
2023/12/19 10:00:39;;;;;;;12.07;8.80;;;;;;;;;;6306752;22;20746;-80
2023/12/19 10:03:07;;;;;;;10.10;8.43;;;;;;;;;;6307051;22;20633;-80
2023/12/19 10:05:34;;;;;;;12.97;8.90;;;;;;;;;;6307709;22;20173;-80
2023/12/19 10:08:02;;;;;;;13.20;8.83;;;;;;;;;;6307821;22;20200;-80
2023/12/19 10:10:48;;;;;;;11.97;8.13;;;;;;;;;;6306861;22;20246;-80
2023/12/19 10:13:25;;;;;;;12.20;8.20;;;;;;;;;;6307292;22;20193;-80
2023/12/19 10:15:59;;;;;;;12.90;8.33;;;;;;;;;;6307415;22;20197;-80
2023/12/19 10:18:27;;;;;;;13.13;9.07;;;;;;;;;;6307015;22;20228;-79
2023/12/19 10:21:03;;;;;;;12.47;8.70;;;;;;;;;;6307365;22;20257;-81
2023/12/19 10:23:30;;;;;;;13.30;8.30;;;;;;;;;;6306789;22;20493;-82
2023/12/19 10:25:58;;;;;;;13.33;7.90;;;;;;;;;;6307357;22;20281;-79
2023/12/19 10:28:26;;;;;;;12.43;8.63;;;;;;;;;;6306959;22;20253;-80
2023/12/19 10:31:09;;;;;;;11.27;8.73;;;;;;;;;;6306846;22;20198;-81
2023/12/19 10:33:40;;;;;;;9.97;8.30;;;;;;;;;;6307613;22;20166;-80
2023/12/19 10:36:08;;;;;;;13.53;8.17;;;;;;;;;;6306763;22;20249;-80
2023/12/19 10:38:46;;;;;;;12.33;8.03;;;;;;;;;;6306151;22;20675;-80
2023/12/19 10:41:18;;;;;;;12.47;7.50;;;;;;;;;;6306574;22;20176;-81
2023/12/19 10:43:48;;;;;;;10.07;7.50;;;;;;;;;;6306855;22;20197;-80
2023/12/19 10:46:16;;;;;;;11.30;6.97;;;;;;;;;;6307022;22;20201;-80
2023/12/19 10:48:43;;;;;;;8.90;7.00;;;;;;;;;;6307009;22;20516;-80
2023/12/19 10:51:12;;;;;;;10.97;7.37;;;;;;;;;;6306604;22;20177;-80
2023/12/19 10:53:46;;;;;;;12.73;7.30;;;;;;;;;;6306402;22;20166;-80
2023/12/19 10:56:13;;;;;;;13.87;7.83;;;;;;;;;;6306910;22;20173;-79
2023/12/19 10:58:43;;;;;;;8.20;6.10;;;;;;;;;;6306147;22;20284;-78
2023/12/19 11:01:13;;;;;;;9.07;6.93;;;;;;;;;;6306298;22;20225;-79
2023/12/19 11:03:44;;;;;;;11.63;6.70;;;;;;;;;;6307198;22;20282;-80
2023/12/19 11:06:14;;;;;;;9.93;6.83;;;;;;;;;;6306699;22;20169;-79
2023/12/19 11:08:42;;;;;;;9.80;6.17;;;;;;;;;;6306519;22;20257;-80
2023/12/19 11:11:13;;;;;;;11.17;6.47;;;;;;;;;;6306448;22;20194;-79
2023/12/19 11:13:42;;;;;;;12.03;6.47;;;;;;;;;;6306827;22;20253;-79
2023/12/19 11:16:11;;;;;;;10.30;6.80;;;;;;;;;;6307053;22;20170;-79
2023/12/19 11:18:45;;;;;;;8.37;5.60;;;;;;;;;;6306100;22;20206;-80
2023/12/19 11:21:14;;;;;;;12.33;5.97;;;;;;;;;;6306151;22;20253;-80
2023/12/19 11:23:46;;;;;;;9.77;6.23;;;;;;;;;;6306239;22;20248;-79
2023/12/19 11:26:17;;;;;;;11.00;5.50;;;;;;;;;;6305210;22;20166;-80
2023/12/19 11:28:45;;;;;;;6.63;5.47;;;;;;;;;;6306127;22;20166;-80
2023/12/19 11:31:31;;;;;;;9.97;5.70;;;;;;;;;;6306843;22;20170;-80
2023/12/19 11:34:01;;;;;;;10.70;5.27;;;;;;;;;;6306378;22;20247;-79
2023/12/19 11:36:28;;;;;;;10.20;5.53;;;;;;;;;;6306060;22;20492;-79
2023/12/19 11:39:10;;;;;;;8.50;4.77;;;;;;;;;;6306556;22;20204;-80
2023/12/19 11:41:38;;;;;;;10.27;6.20;;;;;;;;;;6305806;22;20197;-80
2023/12/19 11:44:05;;;;;;;10.60;5.80;;;;;;;;;;6306588;22;20699;-80
2023/12/19 11:46:32;;;;;;;10.73;4.97;;;;;;;;;;6306619;22;20477;-79
2023/12/19 11:49:01;;;;;;;9.70;4.70;;;;;;;;;;6306260;22;20679;-80
2023/12/19 11:51:48;;;;;;;8.63;4.70;;;;;;;;;;6305962;22;20245;-80
2023/12/19 11:54:15;;;;;;;10.83;5.27;;;;;;;;;;6305940;22;20493;-80
2023/12/19 11:56:44;;;;;;;11.33;5.57;;;;;;;;;;6305481;22;20734;-80
2023/12/19 11:59:11;;;;;;;11.87;5.77;;;;;;;;;;6306616;22;20201;-79
2023/12/19 12:01:41;;;;;;;7.93;5.03;;;;;;;;;;6305760;22;20588;-79
2023/12/19 12:04:10;;;;;;;7.80;5.33;;;;;;;;;;6306084;22;20216;-80
2023/12/19 12:06:38;;;;;;;7.87;5.50;;;;;;;;;;6305398;22;20663;-79
2023/12/19 12:09:06;;;;;;;11.03;5.60;;;;;;;;;;6306108;22;20169;-79
2023/12/19 12:11:46;;;;;;;7.20;5.53;;;;;;;;;;6306315;22;20170;-79
2023/12/19 12:14:13;;;;;;;9.83;5.80;;;;;;;;;;6305764;22;20162;-79
2023/12/19 12:16:42;;;;;;;10.13;5.30;;;;;;;;;;6305756;22;20205;-80
2023/12/19 12:19:14;;;;;;;9.00;5.47;;;;;;;;;;6305593;22;20201;-80
2023/12/19 12:21:45;;;;;;;13.83;6.10;;;;;;;;;;6306040;22;20193;-80
2023/12/19 12:24:18;;;;;;;10.67;6.13;;;;;;;;;;6306061;22;20170;-79
2023/12/19 12:26:45;;;;;;;12.37;6.53;;;;;;;;;;6305978;22;20178;-79
2023/12/19 12:29:12;;;;;;;9.90;6.20;;;;;;;;;;6306431;22;20252;-80
2023/12/19 12:31:40;;;;;;;11.33;6.30;;;;;;;;;;6305663;22;20648;-79
2023/12/19 12:34:07;;;;;;;10.83;6.00;;;;;;;;;;6305275;22;20700;-79
2023/12/19 12:36:36;;;;;;;11.13;6.40;;;;;;;;;;6305795;22;20170;-79
2023/12/19 12:39:04;;;;;;;10.90;6.17;;;;;;;;;;6305380;22;20201;-79
2023/12/19 12:41:31;;;;;;;11.90;6.30;;;;;;;;;;6306312;22;20165;-79
2023/12/19 12:43:59;;;;;;;12.03;6.40;;;;;;;;;;6305898;22;20166;-79
2023/12/19 12:46:26;;;;;;;9.83;6.67;;;;;;;;;;6305494;22;20215;-80
2023/12/19 12:49:03;;;;;;;15.57;7.33;;;;;;;;;;6305594;22;20166;-79
2023/12/19 12:51:32;;;;;;;11.47;6.50;;;;;;;;;;6305735;22;20169;-80
2023/12/19 12:54:02;;;;;;;11.20;6.17;;;;;;;;;;6305535;22;20162;-80
2023/12/19 12:56:31;;;;;;;12.70;6.30;;;;;;;;;;6306047;22;20188;-79
2023/12/19 12:59:03;;;;;;;12.53;6.80;;;;;;;;;;6305757;22;20289;-80
2023/12/19 13:01:30;;;;;;;11.77;6.77;;;;;;;;;;6305186;22;20198;-80
2023/12/19 13:03:57;;;;;;;11.33;6.33;;;;;;;;;;6305710;22;20196;-80
2023/12/19 13:06:25;;;;;;;13.37;6.93;;;;;;;;;;6305312;22;20271;-81
2023/12/19 13:08:52;;;;;;;12.97;7.50;;;;;;;;;;6305127;22;20170;-80
2023/12/19 13:11:21;;;;;;;12.03;6.67;;;;;;;;;;6305839;22;20166;-79
2023/12/19 13:13:49;;;;;;;13.57;6.33;;;;;;;;;;6305459;22;20216;-80
2023/12/19 13:16:17;;;;;;;10.13;6.50;;;;;;;;;;6305216;22;20723;-80
2023/12/19 13:18:45;;;;;;;11.17;5.57;;;;;;;;;;6305159;22;20203;-80
2023/12/19 13:21:13;;;;;;;13.60;6.60;;;;;;;;;;6305452;22;20166;-79
2023/12/19 13:23:41;;;;;;;11.73;5.97;;;;;;;;;;6305076;22;20656;-80
2023/12/19 13:26:08;;;;;;;11.10;6.30;;;;;;;;;;6305442;22;20177;-79
2023/12/19 13:28:37;;;;;;;11.73;6.20;;;;;;;;;;6305196;22;20667;-80
2023/12/19 13:31:04;;;;;;;12.60;5.97;;;;;;;;;;6305082;22;20166;-79
2023/12/19 13:33:32;;;;;;;12.60;6.03;;;;;;;;;;6305401;22;20248;-80
2023/12/19 13:36:00;;;;;;;11.20;6.13;;;;;;;;;;6305209;22;20169;-80
2023/12/19 13:38:27;;;;;;;12.43;6.10;;;;;;;;;;6305480;22;20201;-79
2023/12/19 13:40:54;;;;;;;10.47;6.20;;;;;;;;;;6304050;22;20166;-80
2023/12/19 13:43:21;;;;;;;15.03;6.53;;;;;;;;;;6305128;22;20548;-80
2023/12/19 13:45:50;;;;;;;10.43;5.73;;;;;;;;;;6305552;22;20223;-80
2023/12/19 13:48:17;;;;;;;10.93;5.60;;;;;;;;;;6304667;22;20174;-80
2023/12/19 13:50:45;;;;;;;11.93;5.63;;;;;;;;;;6305331;22;20166;-80
2023/12/19 13:53:13;;;;;;;10.57;5.83;;;;;;;;;;6305569;22;20173;-80
2023/12/19 13:55:40;;;;;;;14.83;7.00;;;;;;;;;;6305070;22;20563;-80
2023/12/19 13:58:07;;;;;;;12.57;6.40;;;;;;;;;;6305981;22;20170;-80
2023/12/19 14:00:34;;;;;;;17.53;6.90;;;;;;;;;;6304828;22;20206;-80
2023/12/19 14:03:04;;;;;;;13.43;6.00;;;;;;;;;;6305638;22;20227;-80
2023/12/19 14:05:31;;;;;;;14.00;6.10;;;;;;;;;;6305318;22;20201;-81
2023/12/19 14:07:59;;;;;;;13.30;6.00;;;;;;;;;;6305570;22;20208;-81
2023/12/19 14:10:26;;;;;;;11.23;6.50;;;;;;;;;;6305012;22;20174;-81
2023/12/19 14:12:54;;;;;;;14.00;6.40;;;;;;;;;;6304884;22;20185;-81
2023/12/19 14:15:22;;;;;;;11.57;6.80;;;;;;;;;;6304761;22;20690;-80
2023/12/19 14:17:49;;;;;;;13.37;6.50;;;;;;;;;;6305380;22;20190;-80
2023/12/19 14:20:18;;;;;;;14.90;7.07;;;;;;;;;;6305724;22;20663;-80
2023/12/19 14:22:45;;;;;;;12.87;6.43;;;;;;;;;;6307343;22;20508;-80
2023/12/19 14:25:12;;;;;;;15.40;7.13;;;;;;;;;;6307223;22;20177;-80
2023/12/19 14:27:40;;;;;;;11.87;6.57;;;;;;;;;;6307409;22;20170;-80
2023/12/19 14:30:08;;;;;;;14.20;6.90;;;;;;;;;;6306810;22;20174;-80